Kit Carson, Colorado
Current Conditions -  °F | °C
As of 4:53 AM on Thursday 29 Jan 2015 (Local Time) from KITR Reporting Station
Overcast Overcast  
Wind Chill: 25°   Ceiling: 11000
Heat Index: 34°   Visibility: 10mi
Dew Point: 28°   Wind: 12mph
Humidity: 79%   Direction: 350°N
Pressure: 30.38"   Gusts: NA
Location:  38.76°N, 102.79°W
Report Text: KITR 291153Z AUTO 35010KT 10SM OVC110 01/M02 A3038 RMK AO2 SLP287 T00111022 10039 20006 53019
Loading
Personal Weather Stations






























Interactive Weather Map New forecast layout! Learn more

10-Day Weather Forecast

Advertisements
Track Severe Weather on mobile